Terminal Aerodrome Forecast
Issued by NWS Grand Forks, ND

Home | Current Version | Previous Version | Graphics & Text | Print | Product List | Glossary On
Versions: 1 2 3 4 5 6 7 8 9 10 11 12 13 14 15 16 17 18 19 20 21 22 23 24 25
000
FTUS43 KFGF 050539
TAFGFK
TAF
KGFK 050539Z 0506/0606 28010KT P6SM OVC009
     FM050800 18006KT 5SM BR BKN008
     FM051300 13007KT 3SM BR OVC010
     FM051500 12005KT 2SM BR OVC006
     FM051800 13006KT 1SM -SN OVC006
     FM052100 00000KT 1/2SM SN OVC003
     FM060000 28008KT 1 1/2SM -SN OVC008
     FM060500 28016KT 3SM -SN OVC010=

USA.gov is the U.S. government's official web portal to all federal, state and local government web resources and services.